createdAt,value
2022-11-30T00:01:15.874Z,35.20
2022-11-30T00:06:23.239Z,33.80
2022-11-30T00:11:27.426Z,37.40
2022-11-30T00:16:31.741Z,38.40
2022-11-30T00:21:33.732Z,32.90
2022-11-30T00:26:36.001Z,32.30
2022-11-30T00:31:39.224Z,31.80
2022-11-30T00:36:41.112Z,30.60
2022-11-30T00:41:43.046Z,33.50
2022-11-30T00:46:44.874Z,28.00
2022-11-30T00:51:46.792Z,35.90
2022-11-30T00:56:48.732Z,36.40
2022-11-30T01:01:50.685Z,28.20
2022-11-30T01:06:52.742Z,34.80
2022-11-30T01:11:54.693Z,37.00
2022-11-30T01:16:56.581Z,34.00
2022-11-30T01:21:58.491Z,36.10
2022-11-30T01:27:00.332Z,36.20
2022-11-30T01:32:02.197Z,34.90
2022-11-30T01:37:04.027Z,36.30
2022-11-30T01:42:13.135Z,31.00
2022-11-30T01:47:16.016Z,33.60
2022-11-30T01:52:24.443Z,43.30
2022-11-30T01:57:31.268Z,31.60
2022-11-30T02:03:02.165Z,43.80
2022-11-30T02:08:10.179Z,36.20
2022-11-30T02:13:18.213Z,34.00
2022-11-30T02:18:29.188Z,28.40
2022-11-30T02:23:46.368Z,32.40
2022-11-30T02:29:12.978Z,39.20
2022-11-30T02:34:17.562Z,32.80
2022-11-30T02:39:22.244Z,36.90
2022-11-30T02:44:24.662Z,33.90
2022-11-30T02:49:41.984Z,36.60
2022-11-30T02:54:44.054Z,36.40
2022-11-30T02:59:46.258Z,34.50
2022-11-30T03:04:48.271Z,34.40
2022-11-30T03:09:50.483Z,33.40
2022-11-30T03:14:52.561Z,33.40
2022-11-30T03:19:54.447Z,36.90
2022-11-30T03:24:56.265Z,26.80
2022-11-30T03:29:58.108Z,36.40
2022-11-30T03:34:59.947Z,33.60
2022-11-30T03:40:01.916Z,28.50
2022-11-30T03:45:04.793Z,37.90
2022-11-30T03:50:07.738Z,36.70
2022-11-30T03:55:09.962Z,36.40
2022-11-30T04:00:13.184Z,34.40
2022-11-30T04:05:15.112Z,36.10
2022-11-30T04:10:16.923Z,41.50
2022-11-30T04:15:18.837Z,33.60
2022-11-30T04:20:20.607Z,38.90
2022-11-30T04:25:22.457Z,44.00
2022-11-30T04:30:24.603Z,35.20
2022-11-30T04:35:26.417Z,34.90
2022-11-30T04:40:28.258Z,36.40
2022-11-30T04:45:35.077Z,35.50
2022-11-30T04:50:37.439Z,31.40
2022-11-30T04:55:39.604Z,35.60
2022-11-30T05:00:41.554Z,40.00
2022-11-30T05:05:43.417Z,35.00
2022-11-30T05:10:50.114Z,33.60
2022-11-30T05:15:54.789Z,40.30
2022-11-30T05:20:56.696Z,41.60
2022-11-30T05:26:02.433Z,36.00
2022-11-30T05:31:05.301Z,38.20
2022-11-30T05:36:10.980Z,38.80
2022-11-30T05:41:13.695Z,40.80
2022-11-30T05:46:15.567Z,35.20
2022-11-30T05:51:19.196Z,38.30
2022-11-30T05:56:22.301Z,35.90
2022-11-30T06:01:29.385Z,39.50
2022-11-30T06:06:31.295Z,37.70
2022-11-30T06:11:33.253Z,41.00
2022-11-30T06:16:35.205Z,42.30
2022-11-30T06:21:37.084Z,45.60
2022-11-30T06:26:39.469Z,39.60
2022-11-30T06:31:41.384Z,36.90
2022-11-30T06:36:43.289Z,36.70
2022-11-30T06:41:47.098Z,43.70
2022-11-30T06:46:51.960Z,38.90
2022-11-30T06:51:53.760Z,38.00
2022-11-30T06:56:56.765Z,37.40
2022-11-30T07:02:01.674Z,45.50
2022-11-30T07:07:08.302Z,38.80
2022-11-30T07:12:10.199Z,40.50
2022-11-30T07:17:12.028Z,48.80
2022-11-30T07:22:14.516Z,37.00
2022-11-30T07:27:16.340Z,40.50
2022-11-30T07:32:18.730Z,45.40
2022-11-30T07:37:20.542Z,35.70
2022-11-30T07:42:23.030Z,32.10
2022-11-30T07:47:24.895Z,33.70
2022-11-30T07:52:26.689Z,31.50
2022-11-30T07:57:28.510Z,34.60
2022-11-30T08:02:30.400Z,30.30
2022-11-30T08:07:32.235Z,32.90
2022-11-30T08:12:34.312Z,28.40
2022-11-30T08:17:36.289Z,28.70
2022-11-30T08:22:38.184Z,31.70
2022-11-30T08:27:40.083Z,33.80
2022-11-30T08:32:41.980Z,32.00
2022-11-30T08:37:43.778Z,31.90
2022-11-30T08:42:45.794Z,32.20
2022-11-30T08:47:47.629Z,31.70
2022-11-30T08:52:49.451Z,37.40
2022-11-30T08:57:51.585Z,35.60
2022-11-30T09:02:53.519Z,42.70
2022-11-30T09:07:55.434Z,38.00
2022-11-30T09:12:57.350Z,35.40
2022-11-30T09:17:59.155Z,33.90
2022-11-30T09:23:00.968Z,37.10
2022-11-30T09:28:03.723Z,35.90
2022-11-30T09:33:07.691Z,35.60
2022-11-30T09:38:09.540Z,30.50
2022-11-30T09:43:46.024Z,33.40
2022-11-30T09:48:59.651Z,36.00
2022-11-30T09:54:09.075Z,37.00
2022-11-30T09:59:29.908Z,34.70
2022-11-30T10:04:31.752Z,36.70
2022-11-30T10:10:32.327Z,33.50
2022-11-30T10:15:54.393Z,30.10
2022-11-30T10:21:24.748Z,31.60
2022-11-30T10:31:38.794Z,30.90
2022-11-30T10:36:44.595Z,40.90
2022-11-30T10:41:54.561Z,35.60
2022-11-30T10:47:02.976Z,37.00
2022-11-30T10:52:08.871Z,34.40
2022-11-30T10:57:11.007Z,30.30
2022-11-30T11:02:36.995Z,33.00
2022-11-30T11:08:05.898Z,29.10
2022-11-30T11:13:17.387Z,25.10
2022-11-30T11:18:26.160Z,25.70
2022-11-30T11:23:39.950Z,27.80
2022-11-30T11:28:45.648Z,30.60
2022-11-30T11:33:53.822Z,27.00
2022-11-30T11:38:56.576Z,26.40
2022-11-30T11:44:10.293Z,28.90
2022-11-30T11:49:22.767Z,29.00
2022-11-30T11:54:35.705Z,27.00
2022-11-30T11:59:52.176Z,29.80
2022-11-30T12:05:07.473Z,30.00
2022-11-30T12:10:50.715Z,25.10
2022-11-30T12:16:11.943Z,30.50
2022-11-30T12:21:16.598Z,30.30
2022-11-30T12:26:43.647Z,31.90
2022-11-30T12:32:11.474Z,35.00
2022-11-30T12:37:40.683Z,31.20
2022-11-30T12:43:03.885Z,29.60
2022-11-30T12:48:50.056Z,31.60
2022-11-30T12:54:13.639Z,32.80
2022-11-30T12:59:27.961Z,31.80
2022-11-30T13:04:38.184Z,27.50
2022-11-30T13:09:47.182Z,31.90
2022-11-30T13:14:59.655Z,33.20
2022-11-30T13:20:16.400Z,27.50
2022-11-30T13:25:59.729Z,30.50
2022-11-30T13:30:58.273Z,30.00
2022-11-30T13:36:03.895Z,27.20
2022-11-30T13:41:08.757Z,29.40
2022-11-30T13:46:15.696Z,23.60
2022-11-30T13:51:39.154Z,20.20
2022-11-30T13:56:45.760Z,27.10
2022-11-30T14:02:36.559Z,23.80
2022-11-30T14:07:38.880Z,27.90
2022-11-30T14:12:56.627Z,26.20
2022-11-30T14:17:59.163Z,29.70
2022-11-30T14:23:07.600Z,28.20
2022-11-30T14:28:16.605Z,27.10
2022-11-30T14:33:48.271Z,25.00
2022-11-30T14:38:50.320Z,26.60
2022-11-30T14:44:10.644Z,24.00
2022-11-30T14:54:47.001Z,28.40
2022-11-30T14:59:53.259Z,22.40
2022-11-30T15:04:56.996Z,25.50
2022-11-30T15:10:06.907Z,22.70
2022-11-30T15:15:24.504Z,23.40
2022-11-30T15:21:06.762Z,23.10
2022-11-30T15:26:21.411Z,25.20
2022-11-30T15:31:24.557Z,24.60
2022-11-30T15:36:33.290Z,26.60
2022-11-30T15:41:36.270Z,25.00
2022-11-30T15:46:46.397Z,27.20
2022-11-30T15:52:18.858Z,27.30
2022-11-30T15:57:22.814Z,24.70
2022-11-30T16:02:28.377Z,26.80
2022-11-30T16:07:34.443Z,23.80
2022-11-30T16:12:36.232Z,25.40
2022-11-30T16:17:38.049Z,30.80
2022-11-30T16:22:44.998Z,28.10
2022-11-30T16:27:48.167Z,26.50
2022-11-30T16:32:50.758Z,26.80
2022-11-30T16:37:52.563Z,25.80
2022-11-30T16:42:54.746Z,27.00
2022-11-30T16:47:56.550Z,33.70
2022-11-30T16:52:58.815Z,32.10
2022-11-30T16:58:01.912Z,31.70
2022-11-30T17:03:09.627Z,27.90
2022-11-30T17:08:11.862Z,27.90
2022-11-30T17:13:14.979Z,26.60
2022-11-30T17:18:16.794Z,26.40
2022-11-30T17:23:18.670Z,26.50
2022-11-30T17:28:20.565Z,23.90
2022-11-30T17:33:22.440Z,27.10
2022-11-30T17:38:27.815Z,26.40
2022-11-30T17:43:29.615Z,31.60
2022-11-30T17:48:32.234Z,26.10
2022-11-30T17:53:34.289Z,28.60
2022-11-30T17:58:43.053Z,28.10
2022-11-30T18:03:46.362Z,28.50
2022-11-30T18:08:48.514Z,31.10
2022-11-30T18:13:53.428Z,29.90
2022-11-30T18:18:58.554Z,31.60
2022-11-30T18:24:00.306Z,30.80
2022-11-30T18:29:02.780Z,31.80
2022-11-30T18:34:06.749Z,27.20
2022-11-30T18:39:09.016Z,31.10
2022-11-30T18:44:10.991Z,34.10
2022-11-30T18:49:12.873Z,30.90
2022-11-30T18:54:14.911Z,25.60
2022-11-30T18:59:16.875Z,32.50
2022-11-30T19:04:18.968Z,30.80
2022-11-30T19:09:22.512Z,34.20
2022-11-30T19:14:24.298Z,29.50
2022-11-30T19:19:26.123Z,30.10
2022-11-30T19:24:28.928Z,29.20
2022-11-30T19:29:30.718Z,29.70
2022-11-30T19:34:32.776Z,30.60
2022-11-30T19:39:34.580Z,34.00
2022-11-30T19:44:36.538Z,32.30
2022-11-30T19:49:38.342Z,34.70
2022-11-30T19:54:40.233Z,30.30
2022-11-30T19:59:42.011Z,29.70
2022-11-30T20:04:43.779Z,29.80
2022-11-30T20:09:45.577Z,34.10
2022-11-30T20:14:50.235Z,24.40
2022-11-30T20:19:52.396Z,26.40
2022-11-30T20:24:54.198Z,26.80
2022-11-30T20:29:56.436Z,24.60
2022-11-30T20:34:58.156Z,30.40
2022-11-30T20:40:00.036Z,23.60
2022-11-30T20:45:01.917Z,25.40
2022-11-30T20:50:06.751Z,24.50
2022-11-30T20:55:09.082Z,21.70
2022-11-30T21:00:13.345Z,23.20
2022-11-30T21:05:15.828Z,25.90
2022-11-30T21:10:17.682Z,25.40
2022-11-30T21:15:19.485Z,23.70
2022-11-30T21:20:21.335Z,25.10
2022-11-30T21:25:23.192Z,25.90
2022-11-30T21:30:24.979Z,25.20
2022-11-30T21:35:26.883Z,22.40
2022-11-30T21:40:28.717Z,23.70
2022-11-30T21:45:30.567Z,21.80
2022-11-30T21:50:32.296Z,23.40
2022-11-30T21:55:36.641Z,22.60
2022-11-30T22:00:38.472Z,17.30
2022-11-30T22:05:40.325Z,19.80
2022-11-30T22:10:42.132Z,20.20
2022-11-30T22:15:43.975Z,23.70
2022-11-30T22:20:45.836Z,25.10
2022-11-30T22:25:47.666Z,25.20
2022-11-30T22:30:49.512Z,29.80
2022-11-30T22:35:51.312Z,25.30
2022-11-30T22:40:53.114Z,27.40
2022-11-30T22:45:54.898Z,32.80
2022-11-30T22:50:56.716Z,24.00
2022-11-30T22:56:03.139Z,25.60
2022-11-30T23:01:12.538Z,25.70
2022-11-30T23:06:15.872Z,23.70
2022-11-30T23:11:20.523Z,23.10
2022-11-30T23:16:22.829Z,29.30
2022-11-30T23:21:29.886Z,31.20
2022-11-30T23:26:34.928Z,24.90
2022-11-30T23:31:39.064Z,23.00
2022-11-30T23:36:40.971Z,26.60
2022-11-30T23:41:43.660Z,19.10
2022-11-30T23:46:45.971Z,21.30
2022-11-30T23:51:47.799Z,25.50
2022-11-30T23:56:49.604Z,24.50
